Terminal Aerodrome Forecast
Issued by NWS

Home | Current Version | Previous Version | Text Only | Print | Product List | Glossary On
Versions: 1 2 3 4 5 6 7 8 9 10 11 12 13 14 15 16 17 18 19 20 21 22 23 24 25 26
000
FTUS41 KPBZ 240520
TAFDUJ
TAF
KDUJ 240520Z 2406/2506 14003KT P6SM BKN200
     FM241500 17008KT P6SM VCSH BKN050
     FM241900 19010KT P6SM BKN035
     FM250100 19008KT 5SM -SHRA VCTS BKN035CB
      TEMPO 2501/2504 2SM TSRA OVC025CB
     FM250400 20008KT 6SM -SHRA OVC010=

USA.gov is the U.S. government's official web portal to all federal, state and local government web resources and services.